createdAt,value
2022-08-16T00:00:29.074Z,100227.75
2022-08-16T00:03:05.837Z,100236.34
2022-08-16T00:05:35.131Z,100234.03
2022-08-16T00:08:35.898Z,100239.19
2022-08-16T00:11:00.872Z,100238.59
2022-08-16T00:13:27.345Z,100244.53
2022-08-16T00:15:55.034Z,100244.13
2022-08-16T00:18:22.339Z,100245.72
2022-08-16T00:20:56.392Z,100245.78
2022-08-16T00:23:24.596Z,100246.25
2022-08-16T00:26:33.893Z,100249.84
2022-08-16T00:28:54.884Z,100243.44
2022-08-16T00:31:24.131Z,100250.84
2022-08-16T00:33:51.183Z,100243.53
2022-08-16T00:36:17.827Z,100248.78
2022-08-16T00:38:44.254Z,100243.59
2022-08-16T00:41:11.355Z,100238.94
2022-08-16T00:43:42.980Z,100251.53
2022-08-16T00:46:22.321Z,100251.78
2022-08-16T00:49:05.303Z,100246.69
2022-08-16T00:51:32.041Z,100243.59
2022-08-16T00:53:58.585Z,100248.25
2022-08-16T00:56:58.301Z,100251.59
2022-08-16T00:59:18.864Z,100254.16
2022-08-16T01:01:46.042Z,100253.66
2022-08-16T01:04:28.895Z,100248.13
2022-08-16T01:07:01.902Z,100241.03
2022-08-16T01:09:33.276Z,100251.88
2022-08-16T01:12:03.287Z,100242.31
2022-08-16T01:14:35.209Z,100248.97
2022-08-16T01:17:03.155Z,100245.59
2022-08-16T01:19:34.984Z,100246.41
2022-08-16T01:22:48.620Z,100248.69
2022-08-16T01:25:02.360Z,100244.41
2022-08-16T01:27:57.621Z,100248.31
2022-08-16T01:30:28.560Z,100242.13
2022-08-16T01:33:02.587Z,100248.25
2022-08-16T01:35:47.664Z,100254.53
2022-08-16T01:38:34.890Z,100249.78
2022-08-16T01:41:06.811Z,100253.22
2022-08-16T01:43:36.289Z,100255.97
2022-08-16T01:46:37.841Z,100257.53
2022-08-16T01:48:59.210Z,100250.50
2022-08-16T01:51:27.625Z,100251.50
2022-08-16T01:53:55.749Z,100260.34
2022-08-16T01:56:25.165Z,100254.56
2022-08-16T01:58:54.997Z,100255.09
2022-08-16T02:01:22.223Z,100256.44
2022-08-16T02:03:50.454Z,100248.50
2022-08-16T02:06:33.724Z,100247.44
2022-08-16T02:09:01.641Z,100243.28
2022-08-16T02:11:28.551Z,100251.06
2022-08-16T02:14:18.282Z,100244.88
2022-08-16T02:16:48.288Z,100249.06
2022-08-16T02:19:16.155Z,100244.59
2022-08-16T02:22:09.095Z,100246.41
2022-08-16T02:24:42.068Z,100244.88
2022-08-16T02:27:10.005Z,100251.13
2022-08-16T02:29:37.480Z,100253.69
2022-08-16T02:32:50.795Z,100252.84
2022-08-16T02:34:56.712Z,100250.09
2022-08-16T02:37:23.233Z,100247.53
2022-08-16T02:39:54.086Z,100251.19
2022-08-16T02:42:21.289Z,100245.75
2022-08-16T02:44:47.860Z,100246.38
2022-08-16T02:47:25.574Z,100248.28
2022-08-16T02:50:34.348Z,100243.63
2022-08-16T02:52:39.175Z,100246.59
2022-08-16T02:55:11.405Z,100242.53
2022-08-16T02:57:38.073Z,100237.28
2022-08-16T03:00:34.097Z,100240.22
2022-08-16T03:03:01.730Z,100236.56
2022-08-16T03:05:31.702Z,100235.88
2022-08-16T03:07:59.862Z,100235.53
2022-08-16T03:10:33.423Z,100229.56
2022-08-16T03:13:00.798Z,100232.56
2022-08-16T03:15:28.361Z,100232.56
2022-08-16T03:17:56.441Z,100228.28
2022-08-16T03:20:32.494Z,100234.63
2022-08-16T03:22:59.474Z,100229.94
2022-08-16T03:25:26.039Z,100229.94
2022-08-16T03:28:09.744Z,100226.38
2022-08-16T03:30:38.119Z,100228.13
2022-08-16T03:33:05.517Z,100229.59
2022-08-16T03:35:37.024Z,100226.97
2022-08-16T03:38:34.401Z,100224.81
2022-08-16T03:40:57.661Z,100220.78
2022-08-16T03:43:24.606Z,100230.56
2022-08-16T03:46:10.989Z,100230.09
2022-08-16T03:48:40.453Z,100232.13
2022-08-16T03:51:12.393Z,100245.84
2022-08-16T03:53:40.486Z,100247.50
2022-08-16T03:56:19.784Z,100245.34
2022-08-16T03:58:48.500Z,100248.91
2022-08-16T04:01:17.731Z,100244.53
2022-08-16T04:03:44.342Z,100256.06
2022-08-16T04:06:10.951Z,100257.84
2022-08-16T04:08:39.698Z,100259.88
2022-08-16T04:11:06.414Z,100263.56
2022-08-16T04:14:00.497Z,100262.75
2022-08-16T04:16:26.417Z,100259.63
2022-08-16T04:19:02.763Z,100268.81
2022-08-16T04:21:46.069Z,100279.31
2022-08-16T04:24:14.646Z,100272.75
2022-08-16T04:26:46.280Z,100281.22
2022-08-16T04:29:21.104Z,100283.94
2022-08-16T04:31:56.753Z,100287.88
2022-08-16T04:34:30.141Z,100285.38
2022-08-16T04:36:57.991Z,100281.09
2022-08-16T04:39:46.135Z,100287.78
2022-08-16T04:42:17.668Z,100290.75
2022-08-16T04:44:53.937Z,100287.66
2022-08-16T04:47:24.439Z,100293.13
2022-08-16T04:49:52.463Z,100293.47
2022-08-16T04:52:34.237Z,100298.84
2022-08-16T04:55:16.672Z,100300.41
2022-08-16T04:57:44.575Z,100304.31
2022-08-16T05:00:31.235Z,100305.38
2022-08-16T05:03:10.826Z,100308.47
2022-08-16T05:05:45.078Z,100314.41
2022-08-16T05:08:28.004Z,100303.34
2022-08-16T05:10:59.871Z,100306.72
2022-08-16T05:13:40.010Z,100300.28
2022-08-16T05:16:11.894Z,100303.47
2022-08-16T05:18:43.288Z,100303.00
2022-08-16T05:21:12.617Z,100304.91
2022-08-16T05:23:39.271Z,100307.31
2022-08-16T05:26:05.881Z,100310.78
2022-08-16T05:28:46.381Z,100318.41
2022-08-16T05:31:13.041Z,100304.09
2022-08-16T05:33:42.124Z,100313.41
2022-08-16T05:36:14.446Z,100315.06
2022-08-16T05:38:41.182Z,100321.28
2022-08-16T05:41:09.440Z,100317.09
2022-08-16T05:43:43.397Z,100321.84
2022-08-16T05:46:29.993Z,100324.34
2022-08-16T05:49:03.746Z,100320.09
2022-08-16T05:51:37.628Z,100320.09
2022-08-16T05:54:11.225Z,100318.28
2022-08-16T05:56:38.372Z,100321.06
2022-08-16T05:59:06.705Z,100329.13
2022-08-16T06:01:38.022Z,100324.88
2022-08-16T06:04:12.717Z,100329.31
2022-08-16T06:06:43.541Z,100325.91
2022-08-16T06:09:24.142Z,100327.97
2022-08-16T06:11:51.001Z,100340.47
2022-08-16T06:14:17.673Z,100332.63
2022-08-16T06:16:44.411Z,100340.16
2022-08-16T06:19:17.048Z,100334.09
2022-08-16T06:21:43.986Z,100350.31
2022-08-16T06:24:54.242Z,100337.88
2022-08-16T06:26:57.828Z,100339.91
2022-08-16T06:29:24.852Z,100338.00
2022-08-16T06:31:51.717Z,100345.00
2022-08-16T06:34:31.862Z,100342.13
2022-08-16T06:37:05.108Z,100347.13
2022-08-16T06:39:34.339Z,100343.78
2022-08-16T06:42:01.223Z,100348.94
2022-08-16T06:44:27.690Z,100348.31
2022-08-16T06:46:54.343Z,100361.00
2022-08-16T06:49:21.015Z,100345.94
2022-08-16T06:51:48.941Z,100348.47
2022-08-16T06:54:16.233Z,100343.38
2022-08-16T06:56:43.212Z,100347.59
2022-08-16T06:59:10.487Z,100356.59
2022-08-16T07:01:46.102Z,100348.81
2022-08-16T07:04:32.064Z,100358.75
2022-08-16T07:07:01.060Z,100354.06
2022-08-16T07:09:29.566Z,100352.00
2022-08-16T07:11:57.340Z,100355.28
2022-08-16T07:14:31.430Z,100358.03
2022-08-16T07:16:59.644Z,100361.75
2022-08-16T07:20:01.304Z,100375.97
2022-08-16T07:22:47.695Z,100364.69
2022-08-16T07:25:04.300Z,100367.06
2022-08-16T07:27:32.106Z,100360.78
2022-08-16T07:30:00.400Z,100372.59
2022-08-16T07:32:29.101Z,100371.94
2022-08-16T07:34:56.348Z,100374.72
2022-08-16T07:37:23.279Z,100379.03
2022-08-16T07:39:50.783Z,100370.34
2022-08-16T07:42:20.389Z,100381.56
2022-08-16T07:44:57.071Z,100381.88
2022-08-16T07:47:24.405Z,100381.41
2022-08-16T07:49:53.393Z,100380.97
2022-08-16T07:52:24.813Z,100391.53
2022-08-16T07:54:57.556Z,100388.03
2022-08-16T07:57:24.783Z,100392.47
2022-08-16T07:59:51.971Z,100395.47
2022-08-16T08:02:20.046Z,100390.66
2022-08-16T08:04:47.269Z,100395.16
2022-08-16T08:07:16.238Z,100393.25
2022-08-16T08:09:43.876Z,100402.09
2022-08-16T08:12:32.317Z,100400.50
2022-08-16T08:14:57.516Z,100403.25
2022-08-16T08:17:24.332Z,100404.34
2022-08-16T08:19:53.626Z,100404.41
2022-08-16T08:22:22.431Z,100406.84
2022-08-16T08:24:53.265Z,100408.25
2022-08-16T08:27:22.946Z,100409.81
2022-08-16T08:30:48.914Z,100428.41
2022-08-16T08:32:57.509Z,100422.75
2022-08-16T08:35:24.350Z,100422.56
2022-08-16T08:37:55.207Z,100413.06
2022-08-16T08:40:24.538Z,100420.38
2022-08-16T08:43:00.069Z,100423.31
2022-08-16T08:48:34.399Z,100417.91
2022-08-16T08:51:04.380Z,100412.44
2022-08-16T08:53:32.616Z,100410.59
2022-08-16T08:56:00.681Z,100412.16
2022-08-16T08:58:54.223Z,100419.50
2022-08-16T09:01:36.788Z,100408.63
2022-08-16T09:04:10.363Z,100407.84
2022-08-16T09:06:43.800Z,100424.94
2022-08-16T09:09:16.653Z,100423.31
2022-08-16T09:11:47.288Z,100419.31
2022-08-16T09:14:24.818Z,100436.66
2022-08-16T09:17:03.540Z,100438.50
2022-08-16T09:19:37.279Z,100440.06
2022-08-16T09:22:19.844Z,100437.50
2022-08-16T09:24:53.206Z,100442.91
2022-08-16T09:27:23.502Z,100439.03
2022-08-16T09:30:00.168Z,100445.31
2022-08-16T09:32:30.351Z,100436.94
2022-08-16T09:34:58.470Z,100447.09
2022-08-16T09:37:29.824Z,100445.09
2022-08-16T09:39:58.170Z,100440.28
2022-08-16T09:42:27.029Z,100441.78
2022-08-16T09:45:10.830Z,100445.72
2022-08-16T09:47:56.575Z,100450.09
2022-08-16T09:50:36.831Z,100454.03
2022-08-16T09:53:15.518Z,100453.63
2022-08-16T09:55:49.274Z,100453.19
2022-08-16T09:58:40.721Z,100454.31
2022-08-16T10:01:05.113Z,100456.59
2022-08-16T10:03:31.760Z,100450.28
2022-08-16T10:05:58.227Z,100450.00
2022-08-16T10:08:26.550Z,100450.69
2022-08-16T10:11:12.199Z,100447.22
2022-08-16T10:13:39.487Z,100444.56
2022-08-16T10:16:08.973Z,100457.44
2022-08-16T10:19:01.033Z,100448.94
2022-08-16T10:21:23.999Z,100446.47
2022-08-16T10:23:53.682Z,100448.97
2022-08-16T10:27:16.797Z,100452.34
2022-08-16T10:29:08.371Z,100453.75
2022-08-16T10:31:44.153Z,100440.69
2022-08-16T10:34:30.875Z,100444.91
2022-08-16T10:36:58.840Z,100445.75
2022-08-16T10:39:25.636Z,100450.34
2022-08-16T10:41:52.078Z,100459.91
2022-08-16T10:44:18.502Z,100447.91
2022-08-16T10:46:45.160Z,100443.66
2022-08-16T10:49:12.839Z,100448.75
2022-08-16T10:52:02.618Z,100455.75
2022-08-16T10:54:31.015Z,100450.41
2022-08-16T10:56:59.458Z,100452.41
2022-08-16T10:59:38.191Z,100458.59
2022-08-16T11:02:59.984Z,100462.41
2022-08-16T11:05:07.072Z,100460.09
2022-08-16T11:07:43.444Z,100464.00
2022-08-16T11:10:59.144Z,100469.81
2022-08-16T11:15:55.800Z,100469.00
2022-08-16T11:19:03.481Z,100471.97
2022-08-16T11:21:10.608Z,100474.31
2022-08-16T11:23:58.743Z,100470.34
2022-08-16T11:26:25.858Z,100479.38
2022-08-16T11:31:40.286Z,100483.50
2022-08-16T11:34:15.439Z,100488.59
2022-08-16T11:36:53.928Z,100489.16
2022-08-16T11:39:31.861Z,100488.53
2022-08-16T11:42:00.706Z,100488.81
2022-08-16T11:44:52.109Z,100493.78
2022-08-16T11:47:15.409Z,100497.47
2022-08-16T11:49:41.841Z,100496.22
2022-08-16T11:52:08.282Z,100496.94
2022-08-16T11:54:36.731Z,100492.13
2022-08-16T11:57:09.354Z,100501.41
2022-08-16T11:59:39.580Z,100506.00
2022-08-16T12:02:32.522Z,100490.50
2022-08-16T12:04:53.818Z,100494.47
2022-08-16T12:07:20.988Z,100488.47
2022-08-16T12:09:50.487Z,100493.84
2022-08-16T12:12:19.734Z,100496.56
2022-08-16T12:14:46.146Z,100492.63
2022-08-16T12:17:14.253Z,100492.47
2022-08-16T12:19:41.337Z,100500.41
2022-08-16T12:22:19.281Z,100501.53
2022-08-16T12:24:51.223Z,100494.31
2022-08-16T12:27:23.040Z,100506.41
2022-08-16T12:29:51.375Z,100506.09
2022-08-16T12:32:35.909Z,100501.28
2022-08-16T12:35:06.653Z,100515.97
2022-08-16T12:37:33.807Z,100514.75
2022-08-16T12:40:01.573Z,100513.84
2022-08-16T12:42:34.772Z,100510.84
2022-08-16T12:45:08.620Z,100523.59
2022-08-16T12:48:10.063Z,100522.84
2022-08-16T12:50:40.686Z,100536.31
2022-08-16T12:53:07.152Z,100525.13
2022-08-16T12:55:41.765Z,100534.09
2022-08-16T12:58:13.702Z,100535.63
2022-08-16T13:00:55.194Z,100533.91
2022-08-16T13:03:21.775Z,100527.25
2022-08-16T13:05:53.611Z,100526.56
2022-08-16T13:08:22.874Z,100528.00
2022-08-16T13:10:57.127Z,100525.53
2022-08-16T13:13:24.939Z,100514.78
2022-08-16T13:16:03.639Z,100524.00
2022-08-16T13:18:35.724Z,100522.91
2022-08-16T13:21:05.154Z,100523.59
2022-08-16T13:23:32.416Z,100520.63
2022-08-16T13:25:59.263Z,100522.19
2022-08-16T13:28:26.047Z,100522.00
2022-08-16T13:30:56.665Z,100514.72
2022-08-16T13:33:30.173Z,100518.97
2022-08-16T13:35:59.492Z,100514.16
2022-08-16T13:38:30.187Z,100528.53
2022-08-16T13:40:59.849Z,100518.56
2022-08-16T13:43:27.447Z,100516.50
2022-08-16T13:45:56.479Z,100531.06
2022-08-16T13:48:25.891Z,100519.91
2022-08-16T13:51:01.497Z,100521.44
2022-08-16T13:53:30.810Z,100514.63
2022-08-16T13:55:59.453Z,100524.47
2022-08-16T13:58:34.739Z,100519.38
2022-08-16T14:01:03.289Z,100530.09
2022-08-16T14:03:30.414Z,100528.06
2022-08-16T14:05:56.788Z,100529.69
2022-08-16T14:08:27.163Z,100528.00
2022-08-16T14:10:54.204Z,100526.81
2022-08-16T14:13:21.261Z,100526.41
2022-08-16T14:15:48.796Z,100529.97
2022-08-16T14:18:20.341Z,100522.47
2022-08-16T14:20:48.610Z,100531.16
2022-08-16T14:23:15.539Z,100523.31
2022-08-16T14:25:42.331Z,100526.66
2022-08-16T14:28:09.620Z,100525.06
2022-08-16T14:30:37.944Z,100525.66
2022-08-16T14:33:07.021Z,100530.84
2022-08-16T14:35:48.381Z,100530.19
2022-08-16T14:38:18.001Z,100528.03
2022-08-16T14:40:49.475Z,100528.22
2022-08-16T14:43:19.854Z,100533.28
2022-08-16T14:45:47.018Z,100522.13
2022-08-16T14:48:21.426Z,100524.63
2022-08-16T14:50:51.906Z,100522.44
2022-08-16T14:53:20.421Z,100515.78
2022-08-16T14:55:47.066Z,100526.25
2022-08-16T14:58:19.479Z,100522.03
2022-08-16T15:00:50.724Z,100522.97
2022-08-16T15:03:21.795Z,100514.03
2022-08-16T15:05:49.519Z,100520.44
2022-08-16T15:08:20.730Z,100514.53
2022-08-16T15:10:47.367Z,100524.59
2022-08-16T15:13:15.311Z,100522.88
2022-08-16T15:15:43.450Z,100538.81
2022-08-16T15:18:11.997Z,100534.94
2022-08-16T15:20:39.485Z,100537.66
2022-08-16T15:23:08.513Z,100536.19
2022-08-16T15:25:47.019Z,100537.25
2022-08-16T15:28:31.908Z,100531.22
2022-08-16T15:31:03.139Z,100532.53
2022-08-16T15:33:33.348Z,100532.09
2022-08-16T15:35:59.821Z,100533.00
2022-08-16T15:38:57.640Z,100535.38
2022-08-16T15:41:55.561Z,100533.78
2022-08-16T15:44:25.647Z,100542.09
2022-08-16T15:46:58.765Z,100540.44
2022-08-16T15:49:34.814Z,100533.03
2022-08-16T15:52:29.875Z,100536.16
2022-08-16T15:54:59.310Z,100535.44
2022-08-16T15:57:28.252Z,100546.91
2022-08-16T16:00:04.934Z,100538.03
2022-08-16T16:02:41.485Z,100542.06
2022-08-16T16:05:09.611Z,100541.75
2022-08-16T16:07:37.572Z,100542.38
2022-08-16T16:10:13.447Z,100545.97
2022-08-16T16:12:53.460Z,100547.59
2022-08-16T16:15:24.444Z,100542.91
2022-08-16T16:17:52.659Z,100549.50
2022-08-16T16:20:21.661Z,100549.81
2022-08-16T16:22:49.273Z,100552.69
2022-08-16T16:25:17.766Z,100557.63
2022-08-16T16:27:45.443Z,100554.88
2022-08-16T16:30:33.535Z,100547.91
2022-08-16T16:33:02.489Z,100552.88
2022-08-16T16:35:32.732Z,100555.38
2022-08-16T16:37:59.577Z,100554.00
2022-08-16T16:40:32.226Z,100553.28
2022-08-16T16:43:00.405Z,100548.69
2022-08-16T16:45:34.622Z,100547.16
2022-08-16T16:48:11.744Z,100551.44
2022-08-16T16:50:43.653Z,100546.75
2022-08-16T16:53:17.341Z,100541.25
2022-08-16T16:55:52.221Z,100540.38
2022-08-16T16:58:38.971Z,100544.03
2022-08-16T17:01:09.781Z,100541.63
2022-08-16T17:03:36.262Z,100541.38
2022-08-16T17:06:09.129Z,100543.00
2022-08-16T17:08:37.802Z,100548.91
2022-08-16T17:11:08.083Z,100543.41
2022-08-16T17:13:34.581Z,100538.47
2022-08-16T17:16:02.158Z,100538.16
2022-08-16T17:19:14.931Z,100538.47
2022-08-16T17:21:16.732Z,100539.31
2022-08-16T17:23:59.613Z,100543.75
2022-08-16T17:26:31.164Z,100541.22
2022-08-16T17:29:11.335Z,100548.78
2022-08-16T17:31:40.895Z,100545.13
2022-08-16T17:34:29.126Z,100544.31
2022-08-16T17:36:58.835Z,100542.31
2022-08-16T17:39:28.757Z,100542.94
2022-08-16T17:41:57.082Z,100545.50
2022-08-16T17:44:23.631Z,100539.91
2022-08-16T17:46:52.248Z,100539.38
2022-08-16T17:49:19.241Z,100535.50
2022-08-16T17:51:45.666Z,100536.69
2022-08-16T17:54:20.421Z,100537.22
2022-08-16T17:57:00.894Z,100541.38
2022-08-16T17:59:27.874Z,100540.00
2022-08-16T18:01:54.481Z,100540.56
2022-08-16T18:04:49.619Z,100549.22
2022-08-16T18:07:08.308Z,100551.75
2022-08-16T18:09:36.824Z,100550.06
2022-08-16T18:12:44.082Z,100541.19
2022-08-16T18:15:04.416Z,100553.41
2022-08-16T18:17:31.926Z,100555.63
2022-08-16T18:19:58.421Z,100558.16
2022-08-16T18:22:30.577Z,100555.09
2022-08-16T18:24:57.719Z,100558.69
2022-08-16T18:27:25.836Z,100562.59
2022-08-16T18:29:53.440Z,100559.81
2022-08-16T18:32:22.171Z,100560.88
2022-08-16T18:34:52.470Z,100554.78
2022-08-16T18:37:20.245Z,100560.59
2022-08-16T18:39:46.715Z,100558.66
2022-08-16T18:42:14.763Z,100557.78
2022-08-16T18:44:43.400Z,100560.16
2022-08-16T18:47:10.433Z,100562.38
2022-08-16T18:49:37.132Z,100570.28
2022-08-16T18:52:04.086Z,100558.75
2022-08-16T18:54:32.228Z,100556.72
2022-08-16T18:56:58.739Z,100563.94
2022-08-16T18:59:30.194Z,100572.25
2022-08-16T19:02:04.380Z,100568.63
2022-08-16T19:04:57.272Z,100575.78
2022-08-16T19:07:30.606Z,100584.25
2022-08-16T19:09:57.845Z,100575.56
2022-08-16T19:12:38.700Z,100580.31
2022-08-16T19:15:15.880Z,100589.41
2022-08-16T19:17:44.120Z,100594.41
2022-08-16T19:20:12.123Z,100597.66
2022-08-16T19:23:02.042Z,100591.25
2022-08-16T19:25:47.653Z,100592.81
2022-08-16T19:28:44.268Z,100599.44
2022-08-16T19:31:15.089Z,100614.00
2022-08-16T19:33:53.769Z,100609.84
2022-08-16T19:36:31.456Z,100612.47
2022-08-16T19:39:05.447Z,100620.91
2022-08-16T19:41:43.355Z,100625.22
2022-08-16T19:44:10.177Z,100629.28
2022-08-16T19:46:38.137Z,100630.91
2022-08-16T19:49:04.847Z,100641.84
2022-08-16T19:51:31.278Z,100636.34
2022-08-16T19:53:57.704Z,100649.06
2022-08-16T19:56:25.839Z,100646.56
2022-08-16T19:59:17.380Z,100656.44
2022-08-16T20:01:42.195Z,100657.84
2022-08-16T20:04:12.137Z,100657.47
2022-08-16T20:06:39.427Z,100657.75
2022-08-16T20:09:06.796Z,100651.59
2022-08-16T20:11:34.721Z,100665.16
2022-08-16T20:14:01.831Z,100664.34
2022-08-16T20:16:28.292Z,100666.66
2022-08-16T20:18:54.708Z,100670.81
2022-08-16T20:21:21.113Z,100672.34
2022-08-16T20:23:47.517Z,100670.94
2022-08-16T20:26:13.934Z,100679.53
2022-08-16T20:28:54.095Z,100681.47
2022-08-16T20:31:22.334Z,100685.34
2022-08-16T20:33:49.309Z,100683.78
2022-08-16T20:36:16.759Z,100683.72
2022-08-16T20:38:46.801Z,100678.81
2022-08-16T20:41:13.622Z,100677.00
2022-08-16T20:43:40.205Z,100678.41
2022-08-16T20:46:06.717Z,100673.47
2022-08-16T20:48:33.163Z,100677.19
2022-08-16T20:50:59.572Z,100685.41
2022-08-16T20:53:25.978Z,100691.44
2022-08-16T20:55:52.391Z,100690.22
2022-08-16T20:58:18.820Z,100695.53
2022-08-16T21:00:45.429Z,100691.06
2022-08-16T21:03:13.218Z,100696.75
2022-08-16T21:05:39.866Z,100694.81
2022-08-16T21:08:52.753Z,100701.94
2022-08-16T21:10:53.579Z,100690.06
2022-08-16T21:13:20.869Z,100684.22
2022-08-16T21:15:47.813Z,100682.56
2022-08-16T21:18:14.849Z,100685.56
2022-08-16T21:20:41.341Z,100696.66
2022-08-16T21:23:10.016Z,100689.31
2022-08-16T21:25:44.821Z,100691.78
2022-08-16T21:28:40.025Z,100688.09
2022-08-16T21:31:08.870Z,100686.94
2022-08-16T21:33:35.933Z,100685.06
2022-08-16T21:36:02.521Z,100683.06
2022-08-16T21:38:30.868Z,100690.50
2022-08-16T21:40:59.250Z,100691.34
2022-08-16T21:43:28.645Z,100685.50
2022-08-16T21:45:55.706Z,100686.53
2022-08-16T21:48:33.871Z,100683.75
2022-08-16T21:51:03.464Z,100685.69
2022-08-16T21:53:30.032Z,100686.19
2022-08-16T21:55:58.673Z,100696.16
2022-08-16T21:58:25.657Z,100688.06
2022-08-16T22:00:52.825Z,100679.53
2022-08-16T22:03:19.745Z,100685.06
2022-08-16T22:06:11.771Z,100689.72
2022-08-16T22:08:35.747Z,100686.97
2022-08-16T22:11:16.564Z,100686.56
2022-08-16T22:13:42.957Z,100691.72
2022-08-16T22:16:17.959Z,100683.97
2022-08-16T22:18:52.391Z,100693.81
2022-08-16T22:21:19.195Z,100689.72
2022-08-16T22:23:45.701Z,100683.53
2022-08-16T22:26:30.848Z,100686.88
2022-08-16T22:29:03.335Z,100695.16
2022-08-16T22:31:30.177Z,100699.03
2022-08-16T22:33:57.227Z,100694.72
2022-08-16T22:36:28.188Z,100692.44
2022-08-16T22:38:58.040Z,100687.09
2022-08-16T22:41:26.403Z,100685.88
2022-08-16T22:43:52.842Z,100682.66
2022-08-16T22:46:19.544Z,100681.44
2022-08-16T22:48:46.206Z,100688.53
2022-08-16T22:51:13.041Z,100685.69
2022-08-16T22:53:39.475Z,100687.06
2022-08-16T22:56:06.122Z,100692.84
2022-08-16T22:58:36.488Z,100695.75
2022-08-16T23:01:05.726Z,100688.00
2022-08-16T23:03:33.110Z,100694.94
2022-08-16T23:06:00.730Z,100698.06
2022-08-16T23:08:38.434Z,100691.22
2022-08-16T23:11:07.037Z,100693.84
2022-08-16T23:13:33.494Z,100683.41
2022-08-16T23:16:11.487Z,100689.81
2022-08-16T23:18:38.806Z,100689.81
2022-08-16T23:21:09.172Z,100692.91
2022-08-16T23:23:36.748Z,100694.72
2022-08-16T23:26:44.355Z,100693.00
2022-08-16T23:28:50.779Z,100687.81
2022-08-16T23:31:17.533Z,100678.53
2022-08-16T23:33:44.336Z,100682.75
2022-08-16T23:36:10.985Z,100686.97
2022-08-16T23:38:39.473Z,100682.53
2022-08-16T23:41:11.267Z,100682.63
2022-08-16T23:43:43.055Z,100680.66
2022-08-16T23:46:16.823Z,100672.81
2022-08-16T23:49:56.028Z,100671.88
2022-08-16T23:51:31.360Z,100662.84
2022-08-16T23:53:57.891Z,100659.16
2022-08-16T23:56:25.642Z,100655.22
2022-08-16T23:59:01.830Z,100654.03
